sensor_id;sensor_type;location;lat;lon;timestamp;P1;durP1;ratioP1;P2;durP2;ratioP2
49101;SDS011;34913;47.520;19.186;2022-12-26T00:01:31;27.45;;;14.70;;
49101;SDS011;34913;47.520;19.186;2022-12-26T00:03:58;28.63;;;15.02;;
49101;SDS011;34913;47.520;19.186;2022-12-26T00:06:25;31.73;;;16.38;;
49101;SDS011;34913;47.520;19.186;2022-12-26T00:08:52;30.20;;;16.55;;
49101;SDS011;34913;47.520;19.186;2022-12-26T00:11:18;30.13;;;16.08;;
49101;SDS011;34913;47.520;19.186;2022-12-26T00:13:44;28.38;;;15.93;;
49101;SDS011;34913;47.520;19.186;2022-12-26T00:16:14;27.02;;;15.75;;
49101;SDS011;34913;47.520;19.186;2022-12-26T00:18:42;28.03;;;16.30;;
49101;SDS011;34913;47.520;19.186;2022-12-26T00:21:08;29.17;;;16.20;;
49101;SDS011;34913;47.520;19.186;2022-12-26T00:23:35;27.67;;;16.77;;
49101;SDS011;34913;47.520;19.186;2022-12-26T00:26:04;28.08;;;17.02;;
49101;SDS011;34913;47.520;19.186;2022-12-26T00:28:37;29.67;;;16.83;;
49101;SDS011;34913;47.520;19.186;2022-12-26T00:31:07;30.63;;;16.58;;
49101;SDS011;34913;47.520;19.186;2022-12-26T00:33:35;31.13;;;17.10;;
49101;SDS011;34913;47.520;19.186;2022-12-26T00:36:04;29.48;;;17.17;;
49101;SDS011;34913;47.520;19.186;2022-12-26T00:38:33;33.38;;;17.58;;
49101;SDS011;34913;47.520;19.186;2022-12-26T00:40:59;30.23;;;17.30;;
49101;SDS011;34913;47.520;19.186;2022-12-26T00:43:25;29.75;;;18.58;;
49101;SDS011;34913;47.520;19.186;2022-12-26T00:45:50;31.33;;;18.55;;
49101;SDS011;34913;47.520;19.186;2022-12-26T00:48:16;31.70;;;18.40;;
49101;SDS011;34913;47.520;19.186;2022-12-26T00:50:42;30.25;;;17.73;;
49101;SDS011;34913;47.520;19.186;2022-12-26T00:53:07;37.90;;;19.65;;
49101;SDS011;34913;47.520;19.186;2022-12-26T00:55:33;33.10;;;18.75;;
49101;SDS011;34913;47.520;19.186;2022-12-26T00:57:58;30.98;;;17.67;;
49101;SDS011;34913;47.520;19.186;2022-12-26T01:00:23;30.92;;;18.73;;
49101;SDS011;34913;47.520;19.186;2022-12-26T01:02:49;30.33;;;18.13;;
49101;SDS011;34913;47.520;19.186;2022-12-26T01:05:15;34.00;;;19.15;;
49101;SDS011;34913;47.520;19.186;2022-12-26T01:07:40;30.00;;;18.42;;
49101;SDS011;34913;47.520;19.186;2022-12-26T01:10:07;33.33;;;18.98;;
49101;SDS011;34913;47.520;19.186;2022-12-26T01:12:35;35.90;;;19.35;;
49101;SDS011;34913;47.520;19.186;2022-12-26T01:15:01;33.03;;;18.65;;
49101;SDS011;34913;47.520;19.186;2022-12-26T01:17:27;36.05;;;19.70;;
49101;SDS011;34913;47.520;19.186;2022-12-26T01:19:53;31.63;;;18.60;;
49101;SDS011;34913;47.520;19.186;2022-12-26T01:22:19;31.20;;;18.08;;
49101;SDS011;34913;47.520;19.186;2022-12-26T01:24:45;36.85;;;19.42;;
49101;SDS011;34913;47.520;19.186;2022-12-26T01:27:11;34.97;;;19.38;;
49101;SDS011;34913;47.520;19.186;2022-12-26T01:29:36;33.75;;;20.27;;
49101;SDS011;34913;47.520;19.186;2022-12-26T01:32:02;33.13;;;19.83;;
49101;SDS011;34913;47.520;19.186;2022-12-26T01:34:27;35.58;;;19.67;;
49101;SDS011;34913;47.520;19.186;2022-12-26T01:36:53;37.90;;;19.70;;
49101;SDS011;34913;47.520;19.186;2022-12-26T01:39:19;34.72;;;19.23;;
49101;SDS011;34913;47.520;19.186;2022-12-26T01:41:45;36.75;;;20.00;;
49101;SDS011;34913;47.520;19.186;2022-12-26T01:47:13;37.60;;;20.77;;
49101;SDS011;34913;47.520;19.186;2022-12-26T01:49:40;34.33;;;20.25;;
49101;SDS011;34913;47.520;19.186;2022-12-26T01:52:10;38.83;;;21.48;;
49101;SDS011;34913;47.520;19.186;2022-12-26T01:54:43;37.45;;;20.13;;
49101;SDS011;34913;47.520;19.186;2022-12-26T01:57:14;35.47;;;20.13;;
49101;SDS011;34913;47.520;19.186;2022-12-26T01:59:45;35.42;;;20.13;;
49101;SDS011;34913;47.520;19.186;2022-12-26T02:02:13;35.95;;;19.90;;
49101;SDS011;34913;47.520;19.186;2022-12-26T02:04:42;35.33;;;19.83;;
49101;SDS011;34913;47.520;19.186;2022-12-26T02:07:30;35.85;;;19.42;;
49101;SDS011;34913;47.520;19.186;2022-12-26T02:09:58;34.03;;;19.45;;
49101;SDS011;34913;47.520;19.186;2022-12-26T02:12:24;37.45;;;19.60;;
49101;SDS011;34913;47.520;19.186;2022-12-26T02:14:52;34.45;;;18.95;;
49101;SDS011;34913;47.520;19.186;2022-12-26T02:17:17;39.33;;;19.95;;
49101;SDS011;34913;47.520;19.186;2022-12-26T02:30:32;35.17;;;20.13;;
49101;SDS011;34913;47.520;19.186;2022-12-26T02:39:09;33.72;;;18.73;;
49101;SDS011;34913;47.520;19.186;2022-12-26T02:44:32;32.90;;;18.50;;
49101;SDS011;34913;47.520;19.186;2022-12-26T02:47:41;33.53;;;17.80;;
49101;SDS011;34913;47.520;19.186;2022-12-26T02:53:53;29.08;;;17.13;;
49101;SDS011;34913;47.520;19.186;2022-12-26T02:56:54;33.35;;;18.23;;
49101;SDS011;34913;47.520;19.186;2022-12-26T03:02:51;33.85;;;18.88;;
49101;SDS011;34913;47.520;19.186;2022-12-26T03:05:43;35.22;;;18.38;;
49101;SDS011;34913;47.520;19.186;2022-12-26T03:08:32;32.75;;;17.85;;
49101;SDS011;34913;47.520;19.186;2022-12-26T03:11:22;33.00;;;17.52;;
49101;SDS011;34913;47.520;19.186;2022-12-26T03:14:16;32.75;;;17.95;;
49101;SDS011;34913;47.520;19.186;2022-12-26T03:16:49;33.47;;;18.88;;
49101;SDS011;34913;47.520;19.186;2022-12-26T03:19:37;31.13;;;17.83;;
49101;SDS011;34913;47.520;19.186;2022-12-26T03:22:22;34.92;;;18.38;;
49101;SDS011;34913;47.520;19.186;2022-12-26T03:24:55;37.50;;;18.27;;
49101;SDS011;34913;47.520;19.186;2022-12-26T03:27:42;34.33;;;18.35;;
49101;SDS011;34913;47.520;19.186;2022-12-26T03:30:08;35.22;;;20.05;;
49101;SDS011;34913;47.520;19.186;2022-12-26T03:32:54;35.25;;;19.48;;
49101;SDS011;34913;47.520;19.186;2022-12-26T03:35:21;34.08;;;19.08;;
49101;SDS011;34913;47.520;19.186;2022-12-26T03:40:26;30.88;;;17.73;;
49101;SDS011;34913;47.520;19.186;2022-12-26T03:43:26;32.67;;;17.08;;
49101;SDS011;34913;47.520;19.186;2022-12-26T03:46:41;33.65;;;18.27;;
49101;SDS011;34913;47.520;19.186;2022-12-26T03:49:47;29.73;;;16.77;;
49101;SDS011;34913;47.520;19.186;2022-12-26T04:01:39;26.83;;;15.60;;
49101;SDS011;34913;47.520;19.186;2022-12-26T04:04:25;26.70;;;15.95;;
49101;SDS011;34913;47.520;19.186;2022-12-26T04:07:15;31.25;;;15.95;;
49101;SDS011;34913;47.520;19.186;2022-12-26T04:10:06;26.63;;;15.40;;
49101;SDS011;34913;47.520;19.186;2022-12-26T04:12:54;26.02;;;14.93;;
49101;SDS011;34913;47.520;19.186;2022-12-26T04:15:51;26.35;;;15.00;;
49101;SDS011;34913;47.520;19.186;2022-12-26T04:19:12;29.25;;;16.08;;
49101;SDS011;34913;47.520;19.186;2022-12-26T04:21:58;30.13;;;16.55;;
49101;SDS011;34913;47.520;19.186;2022-12-26T04:25:09;30.73;;;17.85;;
49101;SDS011;34913;47.520;19.186;2022-12-26T04:27:50;28.85;;;17.30;;
49101;SDS011;34913;47.520;19.186;2022-12-26T04:30:35;28.60;;;16.35;;
49101;SDS011;34913;47.520;19.186;2022-12-26T04:33:24;28.05;;;16.58;;
49101;SDS011;34913;47.520;19.186;2022-12-26T04:36:14;28.92;;;16.52;;
49101;SDS011;34913;47.520;19.186;2022-12-26T04:39:03;30.30;;;17.02;;
49101;SDS011;34913;47.520;19.186;2022-12-26T04:41:53;29.67;;;16.67;;
49101;SDS011;34913;47.520;19.186;2022-12-26T04:44:40;30.02;;;16.52;;
49101;SDS011;34913;47.520;19.186;2022-12-26T04:47:06;29.35;;;16.65;;
49101;SDS011;34913;47.520;19.186;2022-12-26T04:49:39;31.98;;;17.20;;
49101;SDS011;34913;47.520;19.186;2022-12-26T04:52:24;29.63;;;16.45;;
49101;SDS011;34913;47.520;19.186;2022-12-26T04:55:10;30.13;;;16.67;;
49101;SDS011;34913;47.520;19.186;2022-12-26T04:57:35;29.60;;;17.52;;
49101;SDS011;34913;47.520;19.186;2022-12-26T05:00:01;31.83;;;17.00;;
49101;SDS011;34913;47.520;19.186;2022-12-26T05:02:26;31.98;;;16.92;;
49101;SDS011;34913;47.520;19.186;2022-12-26T05:05:10;30.35;;;16.50;;
49101;SDS011;34913;47.520;19.186;2022-12-26T05:07:54;30.50;;;17.63;;
49101;SDS011;34913;47.520;19.186;2022-12-26T05:10:38;32.97;;;16.95;;
49101;SDS011;34913;47.520;19.186;2022-12-26T05:13:04;33.47;;;17.38;;
49101;SDS011;34913;47.520;19.186;2022-12-26T05:15:29;30.90;;;16.77;;
49101;SDS011;34913;47.520;19.186;2022-12-26T05:18:14;30.60;;;17.00;;
49101;SDS011;34913;47.520;19.186;2022-12-26T05:21:00;28.30;;;16.02;;
49101;SDS011;34913;47.520;19.186;2022-12-26T05:23:45;25.67;;;15.35;;
49101;SDS011;34913;47.520;19.186;2022-12-26T05:26:29;30.00;;;15.88;;
49101;SDS011;34913;47.520;19.186;2022-12-26T05:29:13;27.17;;;15.57;;
49101;SDS011;34913;47.520;19.186;2022-12-26T05:31:38;27.88;;;16.15;;
49101;SDS011;34913;47.520;19.186;2022-12-26T05:34:04;29.75;;;16.27;;
49101;SDS011;34913;47.520;19.186;2022-12-26T05:36:35;33.67;;;17.13;;
49101;SDS011;34913;47.520;19.186;2022-12-26T05:41:29;32.22;;;16.52;;
49101;SDS011;34913;47.520;19.186;2022-12-26T05:43:54;34.90;;;18.08;;
49101;SDS011;34913;47.520;19.186;2022-12-26T05:46:19;37.58;;;18.30;;
49101;SDS011;34913;47.520;19.186;2022-12-26T05:48:45;33.72;;;17.90;;
49101;SDS011;34913;47.520;19.186;2022-12-26T05:51:10;38.03;;;18.95;;
49101;SDS011;34913;47.520;19.186;2022-12-26T05:53:36;34.90;;;18.52;;
49101;SDS011;34913;47.520;19.186;2022-12-26T05:56:02;30.63;;;18.10;;
49101;SDS011;34913;47.520;19.186;2022-12-26T05:58:31;40.15;;;20.05;;
49101;SDS011;34913;47.520;19.186;2022-12-26T06:01:04;35.25;;;19.35;;
49101;SDS011;34913;47.520;19.186;2022-12-26T06:03:32;35.35;;;19.10;;
49101;SDS011;34913;47.520;19.186;2022-12-26T06:05:57;36.60;;;20.45;;
49101;SDS011;34913;47.520;19.186;2022-12-26T06:08:23;33.42;;;18.77;;
49101;SDS011;34913;47.520;19.186;2022-12-26T06:10:48;35.25;;;18.42;;
49101;SDS011;34913;47.520;19.186;2022-12-26T06:13:14;34.20;;;18.75;;
49101;SDS011;34913;47.520;19.186;2022-12-26T06:15:39;35.17;;;18.30;;
49101;SDS011;34913;47.520;19.186;2022-12-26T06:18:04;33.78;;;18.80;;
49101;SDS011;34913;47.520;19.186;2022-12-26T06:20:30;35.90;;;18.38;;
49101;SDS011;34913;47.520;19.186;2022-12-26T06:22:56;35.10;;;19.45;;
49101;SDS011;34913;47.520;19.186;2022-12-26T06:25:22;33.95;;;18.40;;
49101;SDS011;34913;47.520;19.186;2022-12-26T06:27:47;36.60;;;19.00;;
49101;SDS011;34913;47.520;19.186;2022-12-26T06:30:13;37.50;;;20.92;;
49101;SDS011;34913;47.520;19.186;2022-12-26T06:32:38;36.17;;;21.00;;
49101;SDS011;34913;47.520;19.186;2022-12-26T06:35:03;38.95;;;21.67;;
49101;SDS011;34913;47.520;19.186;2022-12-26T06:37:29;33.50;;;19.70;;
49101;SDS011;34913;47.520;19.186;2022-12-26T06:39:56;38.83;;;22.00;;
49101;SDS011;34913;47.520;19.186;2022-12-26T06:42:21;33.97;;;19.67;;
49101;SDS011;34913;47.520;19.186;2022-12-26T06:44:47;36.42;;;19.83;;
49101;SDS011;34913;47.520;19.186;2022-12-26T06:47:12;35.70;;;19.70;;
49101;SDS011;34913;47.520;19.186;2022-12-26T06:49:37;36.47;;;20.58;;
49101;SDS011;34913;47.520;19.186;2022-12-26T06:52:03;39.92;;;23.00;;
49101;SDS011;34913;47.520;19.186;2022-12-26T06:54:28;37.70;;;21.83;;
49101;SDS011;34913;47.520;19.186;2022-12-26T06:56:54;40.47;;;22.40;;
49101;SDS011;34913;47.520;19.186;2022-12-26T06:59:19;46.25;;;25.52;;
49101;SDS011;34913;47.520;19.186;2022-12-26T07:01:44;48.45;;;24.23;;
49101;SDS011;34913;47.520;19.186;2022-12-26T07:04:11;50.88;;;26.23;;
49101;SDS011;34913;47.520;19.186;2022-12-26T07:06:37;50.35;;;26.95;;
49101;SDS011;34913;47.520;19.186;2022-12-26T07:09:04;51.95;;;28.67;;
49101;SDS011;34913;47.520;19.186;2022-12-26T07:11:33;52.72;;;28.42;;
49101;SDS011;34913;47.520;19.186;2022-12-26T07:14:00;49.53;;;26.75;;
49101;SDS011;34913;47.520;19.186;2022-12-26T07:16:26;40.92;;;22.50;;
49101;SDS011;34913;47.520;19.186;2022-12-26T07:18:52;36.28;;;21.40;;
49101;SDS011;34913;47.520;19.186;2022-12-26T07:21:19;33.65;;;20.20;;
49101;SDS011;34913;47.520;19.186;2022-12-26T07:23:45;40.53;;;22.48;;
49101;SDS011;34913;47.520;19.186;2022-12-26T07:26:11;46.33;;;24.67;;
49101;SDS011;34913;47.520;19.186;2022-12-26T07:28:36;45.85;;;25.02;;
49101;SDS011;34913;47.520;19.186;2022-12-26T07:31:02;49.53;;;27.63;;
49101;SDS011;34913;47.520;19.186;2022-12-26T07:33:28;54.08;;;26.95;;
49101;SDS011;34913;47.520;19.186;2022-12-26T07:36:01;46.40;;;23.95;;
49101;SDS011;34913;47.520;19.186;2022-12-26T07:38:28;38.65;;;22.83;;
49101;SDS011;34913;47.520;19.186;2022-12-26T07:40:54;43.65;;;21.70;;
49101;SDS011;34913;47.520;19.186;2022-12-26T07:43:20;40.83;;;21.67;;
49101;SDS011;34913;47.520;19.186;2022-12-26T07:45:46;39.63;;;21.27;;
49101;SDS011;34913;47.520;19.186;2022-12-26T07:48:12;42.95;;;21.73;;
49101;SDS011;34913;47.520;19.186;2022-12-26T07:50:37;40.75;;;21.65;;
49101;SDS011;34913;47.520;19.186;2022-12-26T07:53:02;45.10;;;24.77;;
49101;SDS011;34913;47.520;19.186;2022-12-26T07:55:28;51.13;;;31.33;;
49101;SDS011;34913;47.520;19.186;2022-12-26T07:57:53;40.20;;;23.23;;
49101;SDS011;34913;47.520;19.186;2022-12-26T08:00:19;44.38;;;25.17;;
49101;SDS011;34913;47.520;19.186;2022-12-26T08:02:48;51.70;;;27.65;;
49101;SDS011;34913;47.520;19.186;2022-12-26T08:05:15;43.08;;;22.88;;
49101;SDS011;34913;47.520;19.186;2022-12-26T08:07:41;45.25;;;24.05;;
49101;SDS011;34913;47.520;19.186;2022-12-26T08:10:06;40.58;;;22.17;;
49101;SDS011;34913;47.520;19.186;2022-12-26T08:12:32;76.28;;;38.30;;
49101;SDS011;34913;47.520;19.186;2022-12-26T08:14:58;76.60;;;39.83;;
49101;SDS011;34913;47.520;19.186;2022-12-26T08:17:23;72.45;;;37.17;;
49101;SDS011;34913;47.520;19.186;2022-12-26T08:19:49;70.20;;;36.30;;
49101;SDS011;34913;47.520;19.186;2022-12-26T08:22:14;79.03;;;38.63;;
49101;SDS011;34913;47.520;19.186;2022-12-26T08:24:40;69.53;;;32.70;;
49101;SDS011;34913;47.520;19.186;2022-12-26T08:27:05;51.05;;;26.05;;
49101;SDS011;34913;47.520;19.186;2022-12-26T08:29:31;46.58;;;25.35;;
49101;SDS011;34913;47.520;19.186;2022-12-26T08:31:56;43.33;;;23.90;;
49101;SDS011;34913;47.520;19.186;2022-12-26T08:34:22;40.70;;;22.55;;
49101;SDS011;34913;47.520;19.186;2022-12-26T08:36:50;43.80;;;22.90;;
49101;SDS011;34913;47.520;19.186;2022-12-26T08:39:16;42.10;;;22.70;;
49101;SDS011;34913;47.520;19.186;2022-12-26T08:41:42;47.08;;;23.88;;
49101;SDS011;34913;47.520;19.186;2022-12-26T08:44:08;44.45;;;25.98;;
49101;SDS011;34913;47.520;19.186;2022-12-26T08:46:34;48.30;;;28.38;;
49101;SDS011;34913;47.520;19.186;2022-12-26T08:48:59;44.60;;;24.98;;
49101;SDS011;34913;47.520;19.186;2022-12-26T08:51:25;45.33;;;24.88;;
49101;SDS011;34913;47.520;19.186;2022-12-26T08:53:51;43.75;;;23.52;;
49101;SDS011;34913;47.520;19.186;2022-12-26T08:56:19;44.95;;;24.67;;
49101;SDS011;34913;47.520;19.186;2022-12-26T08:58:46;49.88;;;25.23;;
49101;SDS011;34913;47.520;19.186;2022-12-26T09:01:13;47.92;;;24.65;;
49101;SDS011;34913;47.520;19.186;2022-12-26T09:03:40;51.88;;;25.83;;
49101;SDS011;34913;47.520;19.186;2022-12-26T09:06:06;53.10;;;25.27;;
49101;SDS011;34913;47.520;19.186;2022-12-26T09:08:33;51.47;;;24.27;;
49101;SDS011;34913;47.520;19.186;2022-12-26T09:11:18;61.80;;;27.42;;
49101;SDS011;34913;47.520;19.186;2022-12-26T09:13:45;67.18;;;27.33;;
49101;SDS011;34913;47.520;19.186;2022-12-26T09:16:12;70.55;;;31.77;;
49101;SDS011;34913;47.520;19.186;2022-12-26T09:18:40;77.28;;;33.80;;
49101;SDS011;34913;47.520;19.186;2022-12-26T09:21:07;81.13;;;33.60;;
49101;SDS011;34913;47.520;19.186;2022-12-26T09:23:34;89.80;;;34.65;;
49101;SDS011;34913;47.520;19.186;2022-12-26T09:26:08;73.68;;;30.50;;
49101;SDS011;34913;47.520;19.186;2022-12-26T09:28:35;71.90;;;31.55;;
49101;SDS011;34913;47.520;19.186;2022-12-26T09:31:02;81.20;;;32.97;;
49101;SDS011;34913;47.520;19.186;2022-12-26T09:33:29;82.57;;;34.38;;
49101;SDS011;34913;47.520;19.186;2022-12-26T09:35:57;81.68;;;33.65;;
49101;SDS011;34913;47.520;19.186;2022-12-26T09:38:23;82.28;;;30.92;;
49101;SDS011;34913;47.520;19.186;2022-12-26T09:41:00;68.00;;;28.88;;
49101;SDS011;34913;47.520;19.186;2022-12-26T09:43:47;69.78;;;30.48;;
49101;SDS011;34913;47.520;19.186;2022-12-26T09:49:07;73.55;;;31.60;;
49101;SDS011;34913;47.520;19.186;2022-12-26T09:51:54;67.50;;;30.17;;
49101;SDS011;34913;47.520;19.186;2022-12-26T09:56:51;65.32;;;28.25;;
49101;SDS011;34913;47.520;19.186;2022-12-26T09:59:18;68.93;;;29.70;;
49101;SDS011;34913;47.520;19.186;2022-12-26T10:01:48;70.10;;;28.60;;
49101;SDS011;34913;47.520;19.186;2022-12-26T10:04:21;67.90;;;28.85;;
49101;SDS011;34913;47.520;19.186;2022-12-26T10:06:54;59.58;;;27.23;;
49101;SDS011;34913;47.520;19.186;2022-12-26T10:24:50;46.38;;;21.98;;
49101;SDS011;34913;47.520;19.186;2022-12-26T10:27:17;46.67;;;22.33;;
49101;SDS011;34913;47.520;19.186;2022-12-26T10:29:49;48.15;;;22.63;;
49101;SDS011;34913;47.520;19.186;2022-12-26T10:32:27;47.03;;;21.48;;
49101;SDS011;34913;47.520;19.186;2022-12-26T10:34:57;49.92;;;22.98;;
49101;SDS011;34913;47.520;19.186;2022-12-26T10:40:08;47.38;;;23.17;;
49101;SDS011;34913;47.520;19.186;2022-12-26T10:42:42;51.00;;;22.95;;
49101;SDS011;34913;47.520;19.186;2022-12-26T10:45:16;46.35;;;24.02;;
49101;SDS011;34913;47.520;19.186;2022-12-26T10:47:49;48.00;;;23.77;;
49101;SDS011;34913;47.520;19.186;2022-12-26T10:52:45;50.90;;;23.98;;
49101;SDS011;34913;47.520;19.186;2022-12-26T10:55:14;48.63;;;23.42;;
49101;SDS011;34913;47.520;19.186;2022-12-26T10:57:43;48.83;;;23.38;;
49101;SDS011;34913;47.520;19.186;2022-12-26T11:00:17;48.35;;;22.85;;
49101;SDS011;34913;47.520;19.186;2022-12-26T11:05:37;44.92;;;23.48;;
49101;SDS011;34913;47.520;19.186;2022-12-26T11:08:06;46.88;;;23.83;;
49101;SDS011;34913;47.520;19.186;2022-12-26T11:10:40;53.35;;;24.33;;
49101;SDS011;34913;47.520;19.186;2022-12-26T11:13:17;47.23;;;24.13;;
49101;SDS011;34913;47.520;19.186;2022-12-26T11:15:47;47.10;;;23.08;;
49101;SDS011;34913;47.520;19.186;2022-12-26T11:18:16;50.95;;;24.30;;
49101;SDS011;34913;47.520;19.186;2022-12-26T11:20:45;49.22;;;24.85;;
49101;SDS011;34913;47.520;19.186;2022-12-26T11:23:12;51.83;;;25.35;;
49101;SDS011;34913;47.520;19.186;2022-12-26T11:25:46;50.55;;;25.20;;
49101;SDS011;34913;47.520;19.186;2022-12-26T11:28:24;46.42;;;22.55;;
49101;SDS011;34913;47.520;19.186;2022-12-26T11:30:50;45.75;;;22.70;;
49101;SDS011;34913;47.520;19.186;2022-12-26T11:33:22;47.50;;;22.50;;
49101;SDS011;34913;47.520;19.186;2022-12-26T11:36:08;40.30;;;20.77;;
49101;SDS011;34913;47.520;19.186;2022-12-26T11:38:40;41.05;;;21.25;;
49101;SDS011;34913;47.520;19.186;2022-12-26T11:41:15;43.88;;;20.75;;
49101;SDS011;34913;47.520;19.186;2022-12-26T11:44:19;40.10;;;21.35;;
49101;SDS011;34913;47.520;19.186;2022-12-26T11:49:36;49.08;;;22.77;;
49101;SDS011;34913;47.520;19.186;2022-12-26T11:54:55;40.83;;;20.80;;
49101;SDS011;34913;47.520;19.186;2022-12-26T11:57:21;44.05;;;21.98;;
49101;SDS011;34913;47.520;19.186;2022-12-26T11:59:51;44.25;;;22.23;;
49101;SDS011;34913;47.520;19.186;2022-12-26T12:02:18;44.42;;;22.13;;
49101;SDS011;34913;47.520;19.186;2022-12-26T12:04:51;48.05;;;22.95;;
49101;SDS011;34913;47.520;19.186;2022-12-26T12:07:44;43.75;;;23.05;;
49101;SDS011;34913;47.520;19.186;2022-12-26T12:12:58;48.35;;;24.08;;
49101;SDS011;34913;47.520;19.186;2022-12-26T12:15:52;47.55;;;24.33;;
49101;SDS011;34913;47.520;19.186;2022-12-26T12:24:34;49.08;;;24.30;;
49101;SDS011;34913;47.520;19.186;2022-12-26T12:32:14;46.20;;;23.55;;
49101;SDS011;34913;47.520;19.186;2022-12-26T12:53:43;43.38;;;22.65;;
49101;SDS011;34913;47.520;19.186;2022-12-26T12:58:58;42.45;;;21.80;;
49101;SDS011;34913;47.520;19.186;2022-12-26T13:01:35;44.95;;;23.00;;
49101;SDS011;34913;47.520;19.186;2022-12-26T13:06:49;40.40;;;23.05;;
49101;SDS011;34913;47.520;19.186;2022-12-26T13:09:20;40.88;;;23.10;;
49101;SDS011;34913;47.520;19.186;2022-12-26T13:14:16;45.17;;;23.88;;
49101;SDS011;34913;47.520;19.186;2022-12-26T13:16:53;45.40;;;23.60;;
49101;SDS011;34913;47.520;19.186;2022-12-26T13:19:23;47.50;;;22.85;;
49101;SDS011;34913;47.520;19.186;2022-12-26T13:21:52;40.60;;;22.48;;
49101;SDS011;34913;47.520;19.186;2022-12-26T13:27:00;44.42;;;24.00;;
49101;SDS011;34913;47.520;19.186;2022-12-26T13:34:48;48.10;;;23.70;;
49101;SDS011;34913;47.520;19.186;2022-12-26T13:40:18;50.40;;;25.58;;
49101;SDS011;34913;47.520;19.186;2022-12-26T13:42:53;47.97;;;24.95;;
49101;SDS011;34913;47.520;19.186;2022-12-26T13:55:57;46.05;;;25.55;;
49101;SDS011;34913;47.520;19.186;2022-12-26T14:01:23;48.85;;;25.92;;
49101;SDS011;34913;47.520;19.186;2022-12-26T14:03:59;47.17;;;25.02;;
49101;SDS011;34913;47.520;19.186;2022-12-26T14:17:14;53.22;;;27.75;;
49101;SDS011;34913;47.520;19.186;2022-12-26T14:22:37;57.58;;;31.60;;
49101;SDS011;34913;47.520;19.186;2022-12-26T14:36:09;43.72;;;24.83;;
49101;SDS011;34913;47.520;19.186;2022-12-26T14:41:27;51.00;;;25.27;;
49101;SDS011;34913;47.520;19.186;2022-12-26T14:44:15;45.67;;;24.67;;
49101;SDS011;34913;47.520;19.186;2022-12-26T14:54:49;44.05;;;24.63;;
49101;SDS011;34913;47.520;19.186;2022-12-26T15:00:09;45.05;;;24.85;;
49101;SDS011;34913;47.520;19.186;2022-12-26T15:05:26;41.30;;;23.65;;
49101;SDS011;34913;47.520;19.186;2022-12-26T15:16:11;44.67;;;24.75;;
49101;SDS011;34913;47.520;19.186;2022-12-26T15:21:54;45.78;;;23.05;;
49101;SDS011;34913;47.520;19.186;2022-12-26T15:27:32;69.43;;;35.17;;
49101;SDS011;34913;47.520;19.186;2022-12-26T15:33:07;65.93;;;33.65;;
49101;SDS011;34913;47.520;19.186;2022-12-26T15:38:17;66.72;;;34.63;;
49101;SDS011;34913;47.520;19.186;2022-12-26T15:46:07;73.03;;;36.50;;
49101;SDS011;34913;47.520;19.186;2022-12-26T15:53:56;73.68;;;39.17;;
49101;SDS011;34913;47.520;19.186;2022-12-26T15:59:24;70.35;;;36.45;;
49101;SDS011;34913;47.520;19.186;2022-12-26T16:01:59;80.43;;;40.72;;
49101;SDS011;34913;47.520;19.186;2022-12-26T16:04:31;85.20;;;44.00;;
49101;SDS011;34913;47.520;19.186;2022-12-26T16:09:46;86.63;;;45.15;;
49101;SDS011;34913;47.520;19.186;2022-12-26T16:12:19;76.32;;;40.38;;
49101;SDS011;34913;47.520;19.186;2022-12-26T16:14:48;74.20;;;39.03;;
49101;SDS011;34913;47.520;19.186;2022-12-26T16:19:41;72.85;;;38.30;;
49101;SDS011;34913;47.520;19.186;2022-12-26T16:22:10;68.55;;;36.03;;
49101;SDS011;34913;47.520;19.186;2022-12-26T16:27:45;64.70;;;34.65;;
49101;SDS011;34913;47.520;19.186;2022-12-26T16:30:23;65.03;;;33.25;;
49101;SDS011;34913;47.520;19.186;2022-12-26T16:32:51;62.63;;;32.95;;
49101;SDS011;34913;47.520;19.186;2022-12-26T16:35:19;61.50;;;32.17;;
49101;SDS011;34913;47.520;19.186;2022-12-26T16:37:49;64.65;;;33.50;;
49101;SDS011;34913;47.520;19.186;2022-12-26T16:40:21;75.28;;;36.33;;
49101;SDS011;34913;47.520;19.186;2022-12-26T16:45:33;70.90;;;35.60;;
49101;SDS011;34913;47.520;19.186;2022-12-26T16:48:03;73.07;;;34.20;;
49101;SDS011;34913;47.520;19.186;2022-12-26T16:50:31;73.65;;;35.60;;
49101;SDS011;34913;47.520;19.186;2022-12-26T16:53:21;86.22;;;38.10;;
49101;SDS011;34913;47.520;19.186;2022-12-26T16:59:15;79.75;;;33.85;;
49101;SDS011;34913;47.520;19.186;2022-12-26T17:01:38;112.93;;;32.95;;
49101;SDS011;34913;47.520;19.186;2022-12-26T17:04:06;94.85;;;33.00;;
49101;SDS011;34913;47.520;19.186;2022-12-26T17:06:45;83.75;;;31.77;;
49101;SDS011;34913;47.520;19.186;2022-12-26T17:09:15;127.47;;;32.88;;
49101;SDS011;34913;47.520;19.186;2022-12-26T17:11:46;104.15;;;34.08;;
49101;SDS011;34913;47.520;19.186;2022-12-26T17:14:20;93.55;;;33.58;;
49101;SDS011;34913;47.520;19.186;2022-12-26T17:19:28;146.52;;;31.25;;
49101;SDS011;34913;47.520;19.186;2022-12-26T17:24:42;122.80;;;29.35;;
49101;SDS011;34913;47.520;19.186;2022-12-26T17:27:22;130.93;;;29.92;;
49101;SDS011;34913;47.520;19.186;2022-12-26T17:29:58;131.48;;;30.73;;
49101;SDS011;34913;47.520;19.186;2022-12-26T17:35:24;100.97;;;30.75;;
49101;SDS011;34913;47.520;19.186;2022-12-26T17:37:54;156.98;;;32.97;;
49101;SDS011;34913;47.520;19.186;2022-12-26T17:40:43;147.18;;;32.85;;
49101;SDS011;34913;47.520;19.186;2022-12-26T17:45:34;112.95;;;30.17;;
49101;SDS011;34913;47.520;19.186;2022-12-26T17:48:00;125.70;;;29.88;;
49101;SDS011;34913;47.520;19.186;2022-12-26T17:50:30;102.43;;;30.63;;
49101;SDS011;34913;47.520;19.186;2022-12-26T17:53:07;121.38;;;31.02;;
49101;SDS011;34913;47.520;19.186;2022-12-26T17:55:44;114.82;;;28.20;;
49101;SDS011;34913;47.520;19.186;2022-12-26T17:58:11;109.20;;;29.40;;
49101;SDS011;34913;47.520;19.186;2022-12-26T18:00:37;97.57;;;29.30;;
49101;SDS011;34913;47.520;19.186;2022-12-26T18:03:03;108.82;;;29.55;;
49101;SDS011;34913;47.520;19.186;2022-12-26T18:05:29;97.57;;;29.27;;
49101;SDS011;34913;47.520;19.186;2022-12-26T18:07:55;122.20;;;30.08;;
49101;SDS011;34913;47.520;19.186;2022-12-26T18:10:29;129.00;;;29.88;;
49101;SDS011;34913;47.520;19.186;2022-12-26T18:12:57;185.50;;;29.13;;
49101;SDS011;34913;47.520;19.186;2022-12-26T18:15:27;77.03;;;29.65;;
49101;SDS011;34913;47.520;19.186;2022-12-26T18:17:54;105.17;;;31.43;;
49101;SDS011;34913;47.520;19.186;2022-12-26T18:20:25;102.75;;;31.73;;
49101;SDS011;34913;47.520;19.186;2022-12-26T18:22:53;151.15;;;32.17;;
49101;SDS011;34913;47.520;19.186;2022-12-26T18:25:21;127.90;;;34.15;;
49101;SDS011;34913;47.520;19.186;2022-12-26T18:27:48;141.27;;;31.88;;
49101;SDS011;34913;47.520;19.186;2022-12-26T18:30:15;87.50;;;31.30;;
49101;SDS011;34913;47.520;19.186;2022-12-26T18:32:42;132.23;;;29.20;;
49101;SDS011;34913;47.520;19.186;2022-12-26T18:35:08;150.50;;;30.77;;
49101;SDS011;34913;47.520;19.186;2022-12-26T18:37:34;125.60;;;30.38;;